Weather at Agua Caliente Airstrip [CLOSED]

Public forecast

Using degrees Fahrenheit for public forecast. Weather courtesy of forecast.io.

Closest aviation weather report (METAR) to Agua Caliente Airstrip

Closest report is Buckeye Municipal Airport, 11.4 nm (21.1 km) NNE. Retrieved 2021/06/25 02:55 UTC (23 minutes ago):

KBXK 250255Z AUTO 35009KT 10SM 36/11 A2978 RMK A01

Closest aviation forecast (TAF) to Agua Caliente Airstrip

Forecast is more than 6 hours old.

Closest forecast is Luke Air Force Base, 26.9 nm (49.8 km) NE. Retrieved 2021/06/24 21:18 UTC (6 hours ago):

TAF ETNG 242000Z 2421/2512 27004KT 9999 SCT040 TAF KLUF 242000Z 2420/2602 20012KT 9999 FEW150 QNH2977INS TEMPO 2420/2501 23012G20KT BECMG 2502/2503 VRB06KT 9999 FEW150 SCT250 QNH2976INS BECMG 2519/2520 21012G20KT 9999 SKC QNH2968INS TX39/2423Z TN27/2512Z